Time;durP1;ratioP1;P1;durP2;ratioP2;P2;SDS_P1;SDS_P2;PMS_P1;PMS_P2;Temp;Humidity;BMP_temperature;BMP_pressure;BME280_temperature;BME280_humidity;BME280_pressure;Samples;Min_cycle;Max_cycle;Signal;HPM_P1;HPM_P2
2023/10/20 00:00:43;;;;;;;2.63;2.40;;;;;16.30;95683.00;;;;5031264;28;20140;-67
2023/10/20 00:03:10;;;;;;;2.38;1.98;;;;;16.20;95666.00;;;;5031303;28;20096;-67
2023/10/20 00:05:37;;;;;;;5.68;2.00;;;;;16.20;95652.00;;;;5014375;28;20069;-67
2023/10/20 00:08:04;;;;;;;2.17;1.98;;;;;16.20;95652.00;;;;5031014;28;20050;-66
2023/10/20 00:10:35;;;;;;;2.15;1.95;;;;;16.20;95664.00;;;;5031342;28;20040;-67
2023/10/20 00:13:04;;;;;;;2.35;1.85;;;;;16.30;95666.00;;;;5014825;28;20059;-66
2023/10/20 00:15:32;;;;;;;3.45;2.25;;;;;16.50;95672.00;;;;5030476;28;20037;-67
2023/10/20 00:17:58;;;;;;;4.38;2.17;;;;;16.50;95659.00;;;;5014534;28;20056;-66
2023/10/20 00:20:25;;;;;;;2.70;2.40;;;;;16.50;95670.00;;;;5032512;28;20045;-65
2023/10/20 00:22:52;;;;;;;3.42;2.58;;;;;16.60;95669.00;;;;5031085;28;20050;-65
2023/10/20 00:25:18;;;;;;;4.38;2.70;;;;;16.50;95662.00;;;;5013990;28;20129;-66
2023/10/20 00:27:45;;;;;;;4.20;2.50;;;;;16.50;95670.00;;;;5018162;28;20398;-65
2023/10/20 00:30:12;;;;;;;4.40;2.75;;;;;16.50;95667.00;;;;5035179;28;20415;-65
2023/10/20 00:32:39;;;;;;;4.03;2.70;;;;;16.50;95677.00;;;;5036195;28;20045;-67
2023/10/20 00:35:13;;;;;;;2.40;2.20;;;;;16.40;95674.00;;;;5035537;28;20045;-66
2023/10/20 00:37:40;;;;;;;2.70;2.50;;;;;16.40;95675.00;;;;5034777;28;20049;-64
2023/10/20 00:40:11;;;;;;;4.50;2.47;;;;;16.40;95665.00;;;;5018680;28;20498;-64
2023/10/20 00:42:38;;;;;;;3.90;2.33;;;;;16.40;95661.00;;;;5020166;28;20045;-64
2023/10/20 00:45:08;;;;;;;4.43;2.15;;;;;16.40;95672.00;;;;5021711;28;20145;-65
2023/10/20 00:47:36;;;;;;;2.00;1.90;;;;;16.50;95664.00;;;;5037991;28;20056;-64
2023/10/20 00:50:04;;;;;;;4.18;2.00;;;;;16.50;95650.00;;;;5036930;28;20049;-64
2023/10/20 00:52:35;;;;;;;2.40;2.15;;;;;16.50;95646.00;;;;5043713;28;20042;-64
2023/10/20 00:55:03;;;;;;;3.15;1.83;;;;;16.40;95640.00;;;;5040142;28;20033;-66
2023/10/20 00:57:30;;;;;;;4.70;2.50;;;;;16.40;95632.00;;;;5055425;28;20049;-65
2023/10/20 00:59:57;;;;;;;6.95;2.40;;;;;16.50;95638.00;;;;5055038;28;20065;-65
2023/10/20 01:02:24;;;;;;;2.83;2.10;;;;;16.40;95618.00;;;;5055074;28;20107;-65
2023/10/20 01:04:51;;;;;;;2.47;2.10;;;;;16.30;95616.00;;;;5055097;28;20053;-66
2023/10/20 01:07:18;;;;;;;2.15;1.95;;;;;16.30;95617.00;;;;5057704;28;20057;-66
2023/10/20 01:09:44;;;;;;;2.17;2.00;;;;;16.30;95615.00;;;;5059663;28;20041;-66
2023/10/20 01:12:11;;;;;;;2.08;1.65;;;;;16.30;95610.00;;;;5058316;28;20029;-66
2023/10/20 01:14:38;;;;;;;4.05;2.15;;;;;16.30;95604.00;;;;5056939;28;20037;-65
2023/10/20 01:17:05;;;;;;;2.20;2.00;;;;;16.20;95605.00;;;;5058509;28;20108;-66
2023/10/20 01:19:32;;;;;;;2.80;2.53;;;;;16.20;95601.00;;;;5040999;28;20049;-67
2023/10/20 01:21:59;;;;;;;2.17;1.98;;;;;16.20;95597.00;;;;5058110;28;20060;-66
2023/10/20 01:24:26;;;;;;;3.55;2.08;;;;;16.20;95589.00;;;;5040957;28;20022;-65
2023/10/20 01:26:53;;;;;;;2.92;1.80;;;;;16.20;95585.00;;;;5038474;28;20052;-65
2023/10/20 01:29:20;;;;;;;3.60;2.47;;;;;16.20;95574.00;;;;5049552;28;20061;-66
2023/10/20 01:31:47;;;;;;;2.50;2.30;;;;;16.20;95565.00;;;;5053638;28;20025;-65
2023/10/20 01:34:13;;;;;;;2.33;2.13;;;;;16.20;95559.00;;;;5054697;28;20049;-64
2023/10/20 01:36:40;;;;;;;3.13;2.28;;;;;16.10;95563.00;;;;5050061;28;20119;-65
2023/10/20 01:39:08;;;;;;;3.45;2.53;;;;;16.20;95561.00;;;;5052597;28;20032;-65
2023/10/20 01:41:34;;;;;;;3.15;2.30;;;;;16.20;95553.00;;;;5053097;28;20049;-65
2023/10/20 01:44:02;;;;;;;2.40;2.20;;;;;16.10;95551.00;;;;5054114;28;20057;-66
2023/10/20 01:46:29;;;;;;;2.80;2.50;;;;;16.10;95550.00;;;;5048303;28;20132;-65
2023/10/20 01:48:55;;;;;;;2.58;2.38;;;;;16.10;95532.00;;;;5033776;28;20049;-65
2023/10/20 01:51:22;;;;;;;4.80;2.40;;;;;16.10;95535.00;;;;5032803;28;20057;-66
2023/10/20 01:53:49;;;;;;;3.95;2.60;;;;;16.00;95533.00;;;;5031892;28;20052;-65
2023/10/20 01:56:15;;;;;;;4.40;2.85;;;;;16.10;95524.00;;;;5032380;28;20044;-66
2023/10/20 01:58:42;;;;;;;3.45;2.75;;;;;16.00;95505.00;;;;5033730;28;20045;-65
2023/10/20 02:01:09;;;;;;;4.25;3.03;;;;;16.00;95497.00;;;;5032116;28;20424;-66
2023/10/20 02:03:36;;;;;;;4.05;3.22;;;;;16.00;95487.00;;;;5033134;28;20037;-65
2023/10/20 02:06:04;;;;;;;3.83;3.38;;;;;16.00;95489.00;;;;5033438;28;20053;-65
2023/10/20 02:08:32;;;;;;;4.85;3.75;;;;;16.00;95473.00;;;;5032438;28;20073;-67
2023/10/20 02:10:59;;;;;;;4.32;3.25;;;;;16.00;95482.00;;;;5032486;28;20060;-65
2023/10/20 02:13:27;;;;;;;4.13;3.38;;;;;16.10;95486.00;;;;5033370;28;20457;-64
2023/10/20 02:15:53;;;;;;;3.53;3.22;;;;;16.10;95466.00;;;;5032018;28;20041;-65
2023/10/20 02:18:21;;;;;;;4.85;3.42;;;;;16.00;95451.00;;;;4996061;28;1071360;-65
2023/10/20 02:20:58;;;;;;;7.63;4.00;;;;;16.00;95449.00;;;;5032770;28;20052;-65
2023/10/20 02:23:25;;;;;;;5.38;4.03;;;;;15.90;95440.00;;;;5032645;28;20498;-65
2023/10/20 02:26:07;;;;;;;4.93;4.25;;;;;15.90;95431.00;;;;5033781;28;20042;-66
2023/10/20 02:28:37;;;;;;;5.00;4.50;;;;;15.80;95432.00;;;;5034065;28;20053;-66
2023/10/20 02:31:17;;;;;;;6.40;5.22;;;;;15.80;95431.00;;;;5032943;28;20045;-66
2023/10/20 02:33:44;;;;;;;5.70;4.75;;;;;15.80;95415.00;;;;5033332;28;20559;-66
2023/10/20 02:36:16;;;;;;;11.45;6.28;;;;;15.80;95434.00;;;;5032728;28;20556;-66
2023/10/20 02:38:43;;;;;;;7.32;5.90;;;;;15.80;95417.00;;;;5033935;28;20046;-65
2023/10/20 02:41:10;;;;;;;7.15;5.93;;;;;15.80;95409.00;;;;5032508;28;20050;-66
2023/10/20 02:43:36;;;;;;;8.73;6.43;;;;;15.80;95406.00;;;;5032017;28;20049;-65
2023/10/20 02:46:03;;;;;;;7.82;7.03;;;;;15.80;95398.00;;;;5032411;28;20049;-66
2023/10/20 02:48:29;;;;;;;10.85;7.30;;;;;15.80;95390.00;;;;5031791;28;20065;-66
2023/10/20 02:50:57;;;;;;;8.10;7.30;;;;;15.70;95365.00;;;;5032002;28;20050;-66
2023/10/20 02:53:24;;;;;;;10.07;7.78;;;;;15.70;95366.00;;;;5032422;28;20136;-65
2023/10/20 02:55:50;;;;;;;10.00;8.35;;;;;15.70;95358.00;;;;5031916;28;20682;-65
2023/10/20 02:58:17;;;;;;;9.60;8.55;;;;;15.70;95362.00;;;;5015536;28;20050;-66
2023/10/20 03:00:46;;;;;;;10.60;9.10;;;;;15.70;95359.00;;;;5032472;28;20038;-66
2023/10/20 03:03:13;;;;;;;10.55;8.45;;;;;15.70;95349.00;;;;5032818;28;20068;-66
2023/10/20 03:05:45;;;;;;;11.45;8.77;;;;;15.70;95347.00;;;;5033528;28;20045;-66
2023/10/20 03:08:12;;;;;;;10.27;7.97;;;;;15.70;95329.00;;;;5034746;28;20463;-66
2023/10/20 03:10:39;;;;;;;10.18;8.50;;;;;15.60;95319.00;;;;5032998;28;20476;-64
2023/10/20 03:13:06;;;;;;;12.10;8.98;;;;;15.60;95319.00;;;;5034788;28;20045;-66
2023/10/20 03:15:33;;;;;;;10.52;8.50;;;;;15.60;95309.00;;;;5033186;28;20483;-68
2023/10/20 03:18:00;;;;;;;10.02;8.95;;;;;15.60;95305.00;;;;5033188;28;20048;-67
2023/10/20 03:20:30;;;;;;;9.80;8.40;;;;;15.50;95296.00;;;;5032022;28;20049;-66
2023/10/20 03:22:58;;;;;;;11.00;8.52;;;;;15.50;95286.00;;;;5033557;28;20046;-67
2023/10/20 03:25:26;;;;;;;11.52;8.43;;;;;15.50;95290.00;;;;5015328;28;20045;-65
2023/10/20 03:27:52;;;;;;;12.80;11.07;;;;;15.50;95294.00;;;;5032618;28;20096;-65
2023/10/20 03:30:19;;;;;;;15.25;10.38;;;;;15.60;95293.00;;;;5032728;28;20049;-65
2023/10/20 03:32:47;;;;;;;10.23;9.23;;;;;15.60;95288.00;;;;5032533;28;20041;-65
2023/10/20 03:35:14;;;;;;;10.50;8.55;;;;;15.60;95270.00;;;;5031208;28;20096;-66
2023/10/20 03:37:41;;;;;;;9.43;8.05;;;;;15.60;95257.00;;;;5032561;28;20041;-65
2023/10/20 03:40:16;;;;;;;9.00;8.10;;;;;15.60;95245.00;;;;5032514;28;20047;-65
2023/10/20 03:42:43;;;;;;;10.45;7.78;;;;;15.60;95233.00;;;;5015130;28;20049;-65
2023/10/20 03:45:13;;;;;;;14.98;7.95;;;;;15.50;95234.00;;;;5031708;28;20375;-65
2023/10/20 03:47:40;;;;;;;9.68;7.30;;;;;15.50;95233.00;;;;5030860;28;20455;-66
2023/10/20 03:50:14;;;;;;;10.20;7.90;;;;;15.50;95229.00;;;;5032283;28;20045;-65
2023/10/20 03:52:41;;;;;;;9.30;7.68;;;;;15.60;95241.00;;;;5032180;28;20049;-65
2023/10/20 03:55:13;;;;;;;8.73;7.70;;;;;15.70;95237.00;;;;5031679;28;20065;-65
2023/10/20 03:57:44;;;;;;;8.55;7.70;;;;;15.70;95227.00;;;;5031049;28;20049;-63
2023/10/20 04:00:27;;;;;;;9.48;8.48;;;;;15.70;95209.00;;;;5032015;28;20380;-66
2023/10/20 04:02:55;;;;;;;10.23;7.13;;;;;15.60;95196.00;;;;5032192;28;20076;-65
2023/10/20 04:05:23;;;;;;;13.75;10.52;;;;;15.60;95184.00;;;;5031891;28;20445;-65
2023/10/20 04:07:50;;;;;;;10.32;8.40;;;;;15.50;95176.00;;;;5031938;28;20056;-65
2023/10/20 04:10:20;;;;;;;9.02;7.18;;;;;15.50;95160.00;;;;5032211;28;20041;-65
2023/10/20 04:12:48;;;;;;;8.48;6.80;;;;;15.40;95158.00;;;;5032086;28;20053;-65
2023/10/20 04:15:15;;;;;;;10.23;6.68;;;;;15.40;95134.00;;;;5030414;28;20050;-65
2023/10/20 04:17:52;;;;;;;7.57;6.60;;;;;15.40;95130.00;;;;5030672;28;20136;-64
2023/10/20 04:20:20;;;;;;;7.68;6.07;;;;;15.40;95113.00;;;;5030944;28;20052;-65
2023/10/20 04:22:49;;;;;;;8.98;6.38;;;;;15.40;95111.00;;;;5031924;28;20041;-65
2023/10/20 04:25:20;;;;;;;8.05;5.80;;;;;15.30;95087.00;;;;5031265;28;20473;-66
2023/10/20 04:41:56;;;;;;;6.30;5.68;;;;;15.30;95012.00;;;;5031757;28;20450;-65
2023/10/20 04:56:00;;;;;;;12.32;8.93;;;;;15.30;95043.00;;;;5031367;28;20045;-66
2023/10/20 05:10:40;;;;;;;4.85;4.43;;;;;15.40;95025.00;;;;5032712;28;20429;-66
2023/10/20 05:13:09;;;;;;;5.55;4.20;;;;;15.40;95025.00;;;;5034478;28;20521;-65
2023/10/20 05:15:39;;;;;;;5.85;4.45;;;;;15.40;95019.00;;;;5035166;28;20593;-66
2023/10/20 05:18:14;;;;;;;5.00;4.25;;;;;15.50;95015.00;;;;5035299;28;20136;-66
2023/10/20 05:20:42;;;;;;;6.72;4.10;;;;;15.40;95010.00;;;;5035358;28;20451;-66
2023/10/20 05:23:14;;;;;;;4.32;3.97;;;;;15.40;94995.00;;;;5034955;28;20081;-66
2023/10/20 05:25:50;;;;;;;7.13;4.20;;;;;15.40;94991.00;;;;5034728;28;20038;-66
2023/10/20 05:28:16;;;;;;;4.65;4.18;;;;;15.40;94991.00;;;;5035140;28;20084;-66
2023/10/20 05:30:46;;;;;;;5.32;4.82;;;;;15.40;94983.00;;;;5034002;28;20069;-66
2023/10/20 05:33:15;;;;;;;5.55;4.43;;;;;15.40;94975.00;;;;5035176;28;20042;-66
2023/10/20 05:35:41;;;;;;;4.32;3.90;;;;;15.40;94965.00;;;;5034373;28;20038;-67
2023/10/20 05:38:08;;;;;;;5.57;4.15;;;;;15.40;94963.00;;;;5033519;28;20494;-66
2023/10/20 05:40:36;;;;;;;4.88;4.15;;;;;15.40;94960.00;;;;5035044;28;20110;-66
2023/10/20 05:43:05;;;;;;;7.45;5.03;;;;;15.40;94964.00;;;;5034704;28;20069;-65
2023/10/20 05:45:39;;;;;;;4.82;4.32;;;;;15.40;94964.00;;;;5033943;28;20511;-66
2023/10/20 05:48:07;;;;;;;5.38;3.95;;;;;15.40;94957.00;;;;5034664;28;20045;-66
2023/10/20 05:50:40;;;;;;;4.40;4.00;;;;;15.30;94945.00;;;;5035270;28;20041;-65
2023/10/20 05:53:07;;;;;;;5.90;4.15;;;;;15.30;94918.00;;;;5035080;28;20102;-67
2023/10/20 05:55:34;;;;;;;5.03;4.10;;;;;15.30;94900.00;;;;5034707;28;20141;-67
2023/10/20 05:58:02;;;;;;;6.53;5.35;;;;;15.30;94893.00;;;;5033812;28;20045;-66
2023/10/20 06:00:29;;;;;;;6.97;5.15;;;;;15.30;94891.00;;;;5034948;28;20506;-67
2023/10/20 06:02:55;;;;;;;8.25;5.68;;;;;15.30;94881.00;;;;5034282;28;20425;-67
2023/10/20 06:05:22;;;;;;;7.43;6.13;;;;;15.30;94884.00;;;;5034056;28;20068;-67
2023/10/20 06:07:49;;;;;;;9.43;5.45;;;;;15.30;94884.00;;;;5034641;28;20044;-67
2023/10/20 06:10:22;;;;;;;7.10;5.47;;;;;15.30;94877.00;;;;5034845;28;20045;-67
2023/10/20 06:12:51;;;;;;;6.35;5.53;;;;;15.30;94876.00;;;;5034659;28;20045;-67
2023/10/20 06:15:19;;;;;;;5.95;5.28;;;;;15.30;94865.00;;;;5033950;28;20076;-67
2023/10/20 06:17:47;;;;;;;6.72;5.97;;;;;15.30;94854.00;;;;5034573;28;20038;-67
2023/10/20 06:20:14;;;;;;;5.97;4.70;;;;;15.30;94850.00;;;;5034815;28;20065;-67
2023/10/20 06:22:42;;;;;;;5.55;4.45;;;;;15.30;94856.00;;;;5034952;28;20072;-65
2023/10/20 06:25:12;;;;;;;5.65;4.05;;;;;15.30;94856.00;;;;5033458;28;20052;-66
2023/10/20 06:27:43;;;;;;;4.72;4.22;;;;;15.40;94855.00;;;;5035401;28;20052;-67
2023/10/20 06:30:21;;;;;;;5.43;4.40;;;;;15.40;94844.00;;;;5038823;28;20049;-66
2023/10/20 06:33:16;;;;;;;5.55;4.35;;;;;15.40;94862.00;;;;5037439;28;20117;-67
2023/10/20 06:35:51;;;;;;;6.18;4.53;;;;;15.50;94848.00;;;;5034607;28;20121;-67
2023/10/20 06:38:30;;;;;;;5.68;4.15;;;;;15.50;94848.00;;;;5035643;28;20053;-67
2023/10/20 06:40:58;;;;;;;5.03;3.78;;;;;15.40;94840.00;;;;5022857;28;20049;-67
2023/10/20 06:43:25;;;;;;;6.13;4.10;;;;;15.40;94842.00;;;;5042361;28;20052;-66
2023/10/20 06:45:59;;;;;;;4.10;3.70;;;;;15.40;94832.00;;;;5043098;28;20383;-67
2023/10/20 06:48:28;;;;;;;5.32;3.97;;;;;15.40;94822.00;;;;5039203;28;20061;-67
2023/10/20 06:50:55;;;;;;;6.85;3.97;;;;;15.40;94822.00;;;;5035239;28;20053;-67
2023/10/20 06:53:22;;;;;;;3.80;3.00;;;;;15.40;94817.00;;;;5032722;28;20073;-66
2023/10/20 06:55:49;;;;;;;7.05;3.20;;;;;15.40;94811.00;;;;5031972;28;20152;-66
2023/10/20 06:58:36;;;;;;;5.32;3.38;;;;;15.40;94809.00;;;;5031963;28;20053;-67
2023/10/20 07:01:06;;;;;;;4.45;3.35;;;;;15.50;94803.00;;;;5032014;28;20111;-66
2023/10/20 07:03:33;;;;;;;4.50;3.47;;;;;15.50;94804.00;;;;5032377;28;20052;-67
2023/10/20 07:06:00;;;;;;;4.05;3.25;;;;;15.50;94799.00;;;;5033013;28;20091;-65
2023/10/20 07:08:27;;;;;;;4.28;3.38;;;;;15.60;94802.00;;;;5032661;28;20057;-67
2023/10/20 07:11:00;;;;;;;4.60;3.22;;;;;15.60;94801.00;;;;5032231;28;20499;-67
2023/10/20 07:13:27;;;;;;;5.95;3.80;;;;;15.70;94803.00;;;;5016221;28;20668;-66
2023/10/20 07:15:56;;;;;;;12.15;9.15;;;;;15.70;94822.00;;;;5016428;28;20053;-67
2023/10/20 07:18:24;;;;;;;10.68;8.02;;;;;15.80;94811.00;;;;5017125;28;20103;-67
2023/10/20 07:20:52;;;;;;;13.77;4.53;;;;;15.90;94816.00;;;;5016857;28;20049;-67
2023/10/20 07:23:23;;;;;;;3.42;3.03;;;;;15.90;94814.00;;;;5033181;28;20130;-67
2023/10/20 07:25:50;;;;;;;5.22;3.17;;;;;15.90;94805.00;;;;5015892;28;20077;-67
2023/10/20 07:28:17;;;;;;;6.65;3.65;;;;;15.90;94819.00;;;;5031553;28;20085;-67
2023/10/20 07:30:44;;;;;;;3.42;2.90;;;;;15.90;94816.00;;;;5015765;28;20053;-65
2023/10/20 07:33:11;;;;;;;4.53;3.15;;;;;15.90;94803.00;;;;5031583;28;20548;-65
2023/10/20 07:35:39;;;;;;;3.40;2.90;;;;;15.90;94788.00;;;;5030464;28;20115;-66
2023/10/20 07:38:07;;;;;;;6.70;3.25;;;;;15.90;94802.00;;;;5031382;28;20073;-65
2023/10/20 07:40:34;;;;;;;5.57;3.55;;;;;15.90;94804.00;;;;5032259;28;20041;-66
2023/10/20 07:43:06;;;;;;;4.43;3.25;;;;;15.90;94807.00;;;;5031277;28;20140;-66
2023/10/20 07:45:42;;;;;;;4.95;3.70;;;;;15.90;94812.00;;;;5030863;28;20053;-66
2023/10/20 07:48:10;;;;;;;4.18;3.78;;;;;16.00;94820.00;;;;5014648;28;20068;-66
2023/10/20 07:50:38;;;;;;;4.53;2.67;;;;;16.00;94820.00;;;;5032469;28;20136;-64
2023/10/20 07:53:05;;;;;;;3.35;2.50;;;;;16.00;94830.00;;;;5031071;28;20041;-64
2023/10/20 07:55:32;;;;;;;4.13;2.88;;;;;16.10;94835.00;;;;5030581;28;20053;-65
2023/10/20 07:57:58;;;;;;;4.00;2.70;;;;;16.10;94836.00;;;;5031190;28;20043;-65
2023/10/20 08:00:25;;;;;;;4.57;2.90;;;;;16.10;94837.00;;;;5031173;28;20049;-65
2023/10/20 08:02:51;;;;;;;4.40;3.47;;;;;16.20;94847.00;;;;5031277;28;20072;-66
2023/10/20 08:05:24;;;;;;;4.05;3.63;;;;;16.20;94856.00;;;;5014667;28;20407;-66
2023/10/20 08:07:53;;;;;;;4.93;3.90;;;;;16.20;94858.00;;;;5030350;28;20056;-66
2023/10/20 08:10:19;;;;;;;5.53;4.68;;;;;16.20;94871.00;;;;5014783;28;20041;-65
2023/10/20 08:12:46;;;;;;;5.10;4.00;;;;;16.30;94870.00;;;;5032051;28;20050;-66
2023/10/20 08:15:12;;;;;;;10.35;7.00;;;;;16.30;94873.00;;;;5031529;28;20060;-66
2023/10/20 08:17:39;;;;;;;5.55;4.80;;;;;16.40;94871.00;;;;5030793;28;20046;-66
2023/10/20 08:20:09;;;;;;;6.40;4.18;;;;;16.40;94871.00;;;;5031944;28;20053;-66
2023/10/20 08:22:36;;;;;;;5.75;5.15;;;;;16.50;94881.00;;;;5032232;28;20045;-66
2023/10/20 08:25:04;;;;;;;8.27;5.38;;;;;16.50;94887.00;;;;5030070;28;20049;-67
2023/10/20 08:27:31;;;;;;;6.53;4.80;;;;;16.70;94902.00;;;;5031859;28;20068;-66
2023/10/20 08:29:57;;;;;;;5.28;4.75;;;;;16.90;94907.00;;;;5032033;28;20122;-66
2023/10/20 08:32:24;;;;;;;6.72;5.03;;;;;16.90;94923.00;;;;5014366;28;20465;-65
2023/10/20 08:34:51;;;;;;;5.45;4.65;;;;;17.00;94934.00;;;;5031314;28;20038;-66
2023/10/20 08:37:18;;;;;;;5.70;4.47;;;;;17.10;94949.00;;;;5031923;28;20467;-67
2023/10/20 08:39:44;;;;;;;12.27;5.20;;;;;17.20;94956.00;;;;5031860;28;20120;-67
2023/10/20 08:42:16;;;;;;;6.43;4.53;;;;;17.40;94974.00;;;;5030567;28;20509;-68
2023/10/20 08:44:44;;;;;;;7.18;4.78;;;;;17.50;94981.00;;;;5031138;28;20461;-67
2023/10/20 08:47:12;;;;;;;6.18;4.97;;;;;17.40;94986.00;;;;5032342;28;20087;-67
2023/10/20 08:49:40;;;;;;;5.78;4.13;;;;;17.30;94990.00;;;;5035515;28;20057;-66
2023/10/20 08:52:10;;;;;;;7.25;4.43;;;;;17.30;94986.00;;;;5035775;28;20069;-67
2023/10/20 08:54:37;;;;;;;10.20;4.82;;;;;17.40;94986.00;;;;5033836;28;20517;-67
2023/10/20 08:57:05;;;;;;;6.65;4.70;;;;;17.50;94976.00;;;;5035470;28;20041;-67
2023/10/20 08:59:32;;;;;;;6.38;3.88;;;;;17.60;94991.00;;;;5036556;28;20327;-67
2023/10/20 09:01:59;;;;;;;13.40;10.95;;;;;17.70;94972.00;;;;5035838;28;20055;-67
2023/10/20 09:04:27;;;;;;;9.65;7.00;;;;;17.70;94971.00;;;;5034031;28;20060;-67
2023/10/20 09:06:55;;;;;;;5.78;4.65;;;;;17.70;94987.00;;;;5035462;28;20088;-67
2023/10/20 09:09:22;;;;;;;6.05;4.30;;;;;17.80;94992.00;;;;5035230;28;20124;-67
2023/10/20 09:11:48;;;;;;;4.82;4.10;;;;;18.00;94990.00;;;;5034088;28;20128;-67
2023/10/20 09:14:15;;;;;;;6.82;4.60;;;;;18.10;94991.00;;;;5034522;28;20509;-66
2023/10/20 09:16:42;;;;;;;6.30;4.00;;;;;18.10;94995.00;;;;5035447;28;20136;-67
2023/10/20 09:19:11;;;;;;;4.85;3.83;;;;;18.20;95002.00;;;;5036794;28;20141;-67
2023/10/20 09:21:41;;;;;;;4.55;4.10;;;;;18.40;95000.00;;;;5037133;28;20050;-67
2023/10/20 09:24:11;;;;;;;5.63;3.70;;;;;18.60;95005.00;;;;5036942;28;20055;-67
2023/10/20 09:26:39;;;;;;;4.82;3.50;;;;;18.80;95009.00;;;;5035686;28;20498;-67
2023/10/20 09:29:07;;;;;;;4.38;3.78;;;;;18.80;95001.00;;;;5035133;28;20068;-67
2023/10/20 09:31:36;;;;;;;6.22;4.78;;;;;18.60;94989.00;;;;5037115;28;20052;-67
2023/10/20 09:34:04;;;;;;;5.90;3.95;;;;;18.50;94984.00;;;;5048779;28;20068;-67
2023/10/20 09:36:32;;;;;;;7.10;4.28;;;;;18.50;94984.00;;;;5049902;28;20046;-67
2023/10/20 09:38:59;;;;;;;5.63;3.72;;;;;18.60;94975.00;;;;5051605;28;20056;-67
2023/10/20 09:41:28;;;;;;;4.80;3.47;;;;;18.60;94977.00;;;;5051117;28;20045;-67
2023/10/20 09:44:31;;;;;;;4.82;3.60;;;;;18.60;94970.00;;;;5050045;28;20037;-66
2023/10/20 09:47:22;;;;;;;4.53;3.30;;;;;18.60;94972.00;;;;5049769;28;20046;-67
2023/10/20 09:49:51;;;;;;;4.47;3.80;;;;;18.60;94968.00;;;;5052879;28;20056;-67
2023/10/20 09:52:19;;;;;;;4.75;3.55;;;;;18.60;94973.00;;;;5050589;28;20041;-67
2023/10/20 09:54:50;;;;;;;4.05;3.13;;;;;18.70;94964.00;;;;5050369;28;20056;-66
2023/10/20 09:57:19;;;;;;;4.10;3.65;;;;;18.90;94983.00;;;;5049413;28;20050;-66
2023/10/20 09:59:51;;;;;;;5.07;3.00;;;;;19.10;94980.00;;;;5049766;28;20114;-66
2023/10/20 10:02:26;;;;;;;10.30;5.53;;;;;19.30;94987.00;;;;5036099;28;20049;-67
2023/10/20 10:04:54;;;;;;;4.05;3.35;;;;;19.40;94996.00;;;;5034259;28;20107;-67
2023/10/20 10:07:34;;;;;;;4.93;3.05;;;;;19.50;94999.00;;;;5033240;28;20052;-68
2023/10/20 10:10:02;;;;;;;4.13;3.08;;;;;19.60;95003.00;;;;5034243;28;20168;-67
2023/10/20 10:12:32;;;;;;;4.03;2.35;;;;;19.60;95009.00;;;;5034214;28;20084;-67
2023/10/20 10:15:03;;;;;;;2.97;2.58;;;;;19.50;95014.00;;;;5033677;28;20049;-68
2023/10/20 10:17:30;;;;;;;3.90;2.80;;;;;19.50;95004.00;;;;5034187;28;20560;-68
2023/10/20 10:19:57;;;;;;;3.17;2.72;;;;;19.60;95004.00;;;;5034435;28;20053;-66
2023/10/20 10:22:29;;;;;;;4.47;2.63;;;;;19.60;95024.00;;;;5034236;28;20042;-67
2023/10/20 10:24:59;;;;;;;3.63;2.60;;;;;19.50;95029.00;;;;5032474;28;20045;-66
2023/10/20 10:27:27;;;;;;;5.15;2.90;;;;;19.40;95030.00;;;;5033894;28;20095;-67
2023/10/20 10:30:09;;;;;;;2.92;2.33;;;;;19.40;95023.00;;;;5034098;28;20558;-66
2023/10/20 10:32:44;;;;;;;4.00;2.42;;;;;19.70;95019.00;;;;5034081;28;20052;-67
2023/10/20 10:35:16;;;;;;;2.92;2.60;;;;;19.80;95008.00;;;;5032177;28;20522;-67
2023/10/20 10:37:43;;;;;;;4.10;3.33;;;;;19.90;95008.00;;;;5032499;28;20046;-66
2023/10/20 10:40:13;;;;;;;3.67;2.42;;;;;20.10;95018.00;;;;5033755;28;20057;-67
2023/10/20 10:42:49;;;;;;;4.45;3.10;;;;;20.30;94998.00;;;;5033742;28;20041;-67
2023/10/20 10:45:36;;;;;;;4.35;3.40;;;;;20.50;95008.00;;;;5033139;28;20409;-66
2023/10/20 10:48:07;;;;;;;4.03;2.22;;;;;20.50;95005.00;;;;5033433;28;20042;-66
2023/10/20 10:50:40;;;;;;;3.78;2.60;;;;;20.70;95019.00;;;;5033544;28;20045;-66
2023/10/20 10:53:07;;;;;;;2.78;2.00;;;;;20.80;95013.00;;;;5015662;28;20077;-66
2023/10/20 10:55:35;;;;;;;2.83;1.98;;;;;21.00;95008.00;;;;5032953;28;20050;-68
2023/10/20 10:58:14;;;;;;;2.88;2.00;;;;;20.60;95003.00;;;;5033396;28;20491;-68
2023/10/20 11:00:43;;;;;;;3.47;1.95;;;;;20.40;94998.00;;;;5033993;28;20438;-68
2023/10/20 11:03:11;;;;;;;4.32;1.70;;;;;20.40;95000.00;;;;5033564;28;20042;-68
2023/10/20 11:05:39;;;;;;;3.92;1.40;;;;;20.20;95009.00;;;;5033062;28;20048;-67
2023/10/20 11:08:07;;;;;;;1.70;1.48;;;;;20.00;95000.00;;;;5033420;28;20048;-66
2023/10/20 11:10:37;;;;;;;1.60;1.30;;;;;20.00;95006.00;;;;5032926;28;20128;-67
2023/10/20 11:13:06;;;;;;;3.00;1.45;;;;;19.90;95005.00;;;;5032200;28;20083;-67
2023/10/20 11:15:33;;;;;;;2.85;1.55;;;;;19.80;95025.00;;;;5033297;28;20065;-68
2023/10/20 11:18:01;;;;;;;2.75;1.92;;;;;19.80;95024.00;;;;5034316;28;20558;-69
2023/10/20 11:20:33;;;;;;;2.67;1.60;;;;;19.70;95037.00;;;;5033982;28;20042;-67
2023/10/20 11:23:00;;;;;;;2.15;1.00;;;;;19.40;95036.00;;;;5033560;28;20060;-68
2023/10/20 11:25:29;;;;;;;2.15;1.15;;;;;19.40;95031.00;;;;5032478;28;20115;-67
2023/10/20 11:27:56;;;;;;;1.25;1.15;;;;;19.30;95015.00;;;;5032712;28;20052;-66
2023/10/20 11:30:25;;;;;;;1.88;1.10;;;;;19.30;95007.00;;;;5033704;28;20433;-66
2023/10/20 11:32:53;;;;;;;1.80;1.45;;;;;19.30;95018.00;;;;5037448;28;20084;-66
2023/10/20 11:35:21;;;;;;;0.73;0.73;;;;;19.40;95015.00;;;;5037045;28;20088;-65
2023/10/20 11:37:51;;;;;;;1.08;0.80;;;;;19.50;95024.00;;;;5035547;28;20041;-65
2023/10/20 11:40:19;;;;;;;2.60;1.40;;;;;19.50;95022.00;;;;5038788;28;20072;-65
2023/10/20 11:42:46;;;;;;;3.13;0.90;;;;;19.60;95033.00;;;;5040348;28;20045;-65
2023/10/20 11:45:14;;;;;;;1.75;1.00;;;;;19.60;95039.00;;;;5040161;28;20049;-65
2023/10/20 11:47:41;;;;;;;2.83;0.88;;;;;19.60;95038.00;;;;5039546;28;20053;-65
2023/10/20 11:50:09;;;;;;;1.63;1.33;;;;;19.70;95037.00;;;;5040674;28;20136;-66
2023/10/20 11:52:37;;;;;;;1.33;0.80;;;;;19.70;95048.00;;;;5036236;28;20053;-66
2023/10/20 11:55:05;;;;;;;1.30;0.80;;;;;19.70;95050.00;;;;5031923;28;20045;-65
2023/10/20 11:57:32;;;;;;;0.98;0.90;;;;;19.80;95054.00;;;;5032201;28;20138;-65
2023/10/20 12:00:01;;;;;;;2.13;1.50;;;;;19.80;95057.00;;;;5032373;28;20069;-65
2023/10/20 12:02:38;;;;;;;2.30;1.40;;;;;19.80;95073.00;;;;5033025;28;20052;-68
2023/10/20 12:05:06;;;;;;;1.23;1.13;;;;;19.60;95074.00;;;;5032041;28;20398;-68
2023/10/20 12:07:32;;;;;;;1.00;0.88;;;;;19.40;95074.00;;;;5032411;28;20041;-67
2023/10/20 12:09:59;;;;;;;2.65;0.80;;;;;19.20;95084.00;;;;5032327;28;20067;-68
2023/10/20 12:12:26;;;;;;;0.93;0.82;;;;;18.90;95088.00;;;;5032717;28;20410;-67
2023/10/20 12:14:52;;;;;;;1.05;0.90;;;;;18.80;95104.00;;;;5031923;28;20048;-67
2023/10/20 12:17:19;;;;;;;0.57;0.57;;;;;18.60;95115.00;;;;5032183;28;20168;-68
2023/10/20 12:19:46;;;;;;;1.52;1.10;;;;;18.50;95117.00;;;;5032671;28;20103;-68
2023/10/20 12:22:16;;;;;;;1.95;1.40;;;;;18.40;95117.00;;;;5035220;28;20068;-69
2023/10/20 12:24:42;;;;;;;1.40;1.30;;;;;18.30;95125.00;;;;5036313;28;20069;-66
2023/10/20 12:27:09;;;;;;;1.00;0.90;;;;;18.40;95135.00;;;;5036612;28;20057;-68
2023/10/20 12:29:39;;;;;;;0.98;0.93;;;;;18.50;95137.00;;;;5035353;28;20055;-70
2023/10/20 12:32:07;;;;;;;0.82;0.80;;;;;18.70;95133.00;;;;5036728;28;20045;-67
2023/10/20 12:34:36;;;;;;;0.68;0.68;;;;;18.80;95144.00;;;;5035701;28;20128;-67
2023/10/20 12:37:03;;;;;;;1.08;0.50;;;;;18.90;95164.00;;;;5036595;28;20495;-67
2023/10/20 12:39:31;;;;;;;1.50;0.95;;;;;18.90;95169.00;;;;5036255;28;20053;-67
2023/10/20 12:42:05;;;;;;;1.20;1.10;;;;;18.80;95182.00;;;;5036287;28;20607;-70
2023/10/20 12:44:33;;;;;;;0.80;0.80;;;;;18.80;95180.00;;;;5035675;28;20049;-69
2023/10/20 12:47:01;;;;;;;0.93;0.90;;;;;18.80;95174.00;;;;5034775;28;20100;-67
2023/10/20 12:49:27;;;;;;;1.02;0.95;;;;;18.80;95171.00;;;;5036214;28;20038;-68
2023/10/20 12:51:54;;;;;;;0.50;0.50;;;;;18.80;95168.00;;;;5036034;28;20051;-66
2023/10/20 12:54:20;;;;;;;2.20;1.92;;;;;18.70;95179.00;;;;5035469;28;20037;-67
2023/10/20 12:56:47;;;;;;;0.93;0.55;;;;;18.60;95193.00;;;;5036098;28;20142;-66
2023/10/20 12:59:14;;;;;;;1.67;1.25;;;;;18.50;95207.00;;;;5035927;28;20121;-67
2023/10/20 13:01:41;;;;;;;0.60;0.60;;;;;18.40;95215.00;;;;5036144;28;20507;-66